Time;durP1;ratioP1;P1;durP2;ratioP2;P2;SDS_P1;SDS_P2;PMS_P1;PMS_P2;Temp;Humidity;BMP_temperature;BMP_pressure;BME280_temperature;BME280_humidity;BME280_pressure;Samples;Min_cycle;Max_cycle;Signal;HPM_P1;HPM_P2
2022/03/29 00:01:05;;;;;;;;;14.00;12.25;;;;;20.77;29.21;100882.75;4975241;28;45465;-60
2022/03/29 00:03:31;;;;;;;;;13.00;12.00;;;;;20.78;29.39;100881.81;4975412;28;45458;-60
2022/03/29 00:05:56;;;;;;;;;12.00;10.25;;;;;20.79;29.54;100875.56;4974878;28;46009;-61
2022/03/29 00:08:22;;;;;;;;;12.00;11.00;;;;;20.78;29.63;100876.53;4975037;28;45340;-60
2022/03/29 00:10:47;;;;;;;;;15.00;12.75;;;;;20.78;29.89;100868.63;4975230;28;45397;-60
2022/03/29 00:13:13;;;;;;;;;8.00;8.00;;;;;20.79;29.56;100862.41;4975456;28;45548;-60
2022/03/29 00:15:38;;;;;;;;;15.00;13.00;;;;;20.78;29.61;100855.47;4974457;28;57020;-59
2022/03/29 00:18:04;;;;;;;;;13.00;11.50;;;;;20.77;29.48;100854.59;4974636;28;45335;-60
2022/03/29 00:20:29;;;;;;;;;9.25;7.50;;;;;20.77;29.34;100851.13;4973796;28;45391;-60
2022/03/29 00:22:55;;;;;;;;;14.25;11.00;;;;;20.77;29.80;100849.34;4975107;28;45590;-58
2022/03/29 00:25:20;;;;;;;;;13.75;10.75;;;;;20.78;29.65;100839.66;4974618;28;45954;-60
2022/03/29 00:27:47;;;;;;;;;11.50;11.50;;;;;20.76;29.68;100842.38;4974860;28;45311;-58
2022/03/29 00:30:15;;;;;;;;;12.75;12.25;;;;;20.76;29.67;100831.00;4974971;28;45245;-60
2022/03/29 00:32:42;;;;;;;;;14.25;12.50;;;;;20.75;29.40;100831.91;4974919;28;45512;-59
2022/03/29 00:35:11;;;;;;;;;13.00;11.25;;;;;20.76;29.75;100831.81;4974498;28;46435;-58
2022/03/29 00:37:37;;;;;;;;;14.00;12.50;;;;;20.76;29.61;100825.72;4973136;28;45842;-59
2022/03/29 00:40:05;;;;;;;;;15.75;13.75;;;;;20.75;29.99;100819.59;4974825;28;45232;-59
2022/03/29 00:42:31;;;;;;;;;13.75;12.00;;;;;20.77;29.85;100830.06;4974792;28;45592;-59
2022/03/29 00:44:57;;;;;;;;;16.50;14.75;;;;;20.76;29.36;100821.28;4974364;28;47153;-59
2022/03/29 00:47:23;;;;;;;;;14.00;13.50;;;;;20.75;29.56;100819.59;4974315;28;45394;-60
2022/03/29 00:49:48;;;;;;;;;15.00;14.25;;;;;20.76;29.66;100815.19;4974791;28;45448;-59
2022/03/29 00:52:15;;;;;;;;;14.25;13.50;;;;;20.76;30.06;100804.66;4974903;28;45495;-59
2022/03/29 00:54:43;;;;;;;;;15.25;11.50;;;;;20.75;29.48;100802.94;4974283;28;45747;-59
2022/03/29 00:57:11;;;;;;;;;13.50;12.00;;;;;20.76;29.70;100794.13;4974560;28;45273;-59
2022/03/29 00:59:42;;;;;;;;;11.75;10.75;;;;;20.76;29.92;100786.22;4973891;28;45342;-59
2022/03/29 01:02:08;;;;;;;;;15.75;10.75;;;;;20.74;30.08;100782.78;4974682;28;45170;-59
2022/03/29 01:04:33;;;;;;;;;13.25;12.00;;;;;20.73;30.10;100774.00;4974274;28;45360;-60
2022/03/29 01:06:59;;;;;;;;;11.75;11.50;;;;;20.74;29.76;100772.25;4974178;28;45287;-60
2022/03/29 01:09:26;;;;;;;;;13.75;11.25;;;;;20.74;30.16;100774.88;4974373;28;45368;-59
2022/03/29 01:11:52;;;;;;;;;14.25;12.00;;;;;20.74;29.50;100767.84;4974496;28;45392;-58
2022/03/29 01:14:20;;;;;;;;;15.00;13.50;;;;;20.74;30.19;100764.34;4974341;28;46244;-59
2022/03/29 01:19:29;;;;;;;;;16.50;13.25;;;;;20.73;30.19;100765.28;4974444;28;45447;-59
2022/03/29 01:22:02;;;;;;;;;12.75;11.00;;;;;20.74;30.00;100769.63;4974409;28;45272;-59
2022/03/29 01:24:28;;;;;;;;;12.00;11.25;;;;;20.74;29.97;100756.44;4974018;28;45409;-60
2022/03/29 01:27:00;;;;;;;;;13.50;12.75;;;;;20.73;30.00;100754.75;4974026;28;45398;-59
2022/03/29 01:29:28;;;;;;;;;14.25;11.50;;;;;20.72;30.11;100748.63;4974024;28;45763;-60
2022/03/29 01:31:53;;;;;;;;;16.25;14.25;;;;;20.72;30.17;100751.28;4974179;28;45557;-60
2022/03/29 01:34:19;;;;;;;;;13.50;11.25;;;;;20.70;29.86;100742.59;4974178;28;45441;-60
2022/03/29 01:36:45;;;;;;;;;14.50;14.25;;;;;20.72;30.30;100750.41;4973850;28;45373;-60
2022/03/29 01:39:11;;;;;;;;;12.50;11.50;;;;;20.73;29.74;100752.13;4974123;28;45377;-59
2022/03/29 01:41:38;;;;;;;;;7.75;6.75;;;;;20.72;30.14;100745.13;4974104;28;45553;-59
2022/03/29 01:44:07;;;;;;;;;11.00;7.50;;;;;20.72;30.20;100734.59;4973616;28;46582;-60
2022/03/29 01:46:33;;;;;;;;;15.00;11.25;;;;;20.70;30.01;100730.28;4973524;28;45291;-60
2022/03/29 01:49:00;;;;;;;;;13.25;13.25;;;;;20.72;29.90;100735.47;4973750;28;45386;-59
2022/03/29 01:51:25;;;;;;;;;14.50;12.50;;;;;20.70;30.01;100724.16;4973920;28;45315;-60
2022/03/29 01:53:56;;;;;;;;;12.00;11.50;;;;;20.72;29.95;100719.66;4973709;28;46156;-59
2022/03/29 01:56:25;;;;;;;;;13.50;13.00;;;;;20.70;30.08;100721.53;4974862;28;45912;-59
2022/03/29 01:58:51;;;;;;;;;12.75;10.00;;;;;20.71;30.46;100728.50;4974010;28;45408;-59
2022/03/29 02:01:16;;;;;;;;;13.25;12.00;;;;;20.72;30.25;100716.16;4973911;28;45270;-58
2022/03/29 02:03:41;;;;;;;;;14.00;14.00;;;;;20.72;30.29;100717.03;4973502;28;47045;-60
2022/03/29 02:06:08;;;;;;;;;11.50;11.00;;;;;20.72;30.03;100718.81;4973350;28;45402;-59
2022/03/29 02:08:33;;;;;;;;;11.25;11.25;;;;;20.70;30.28;100706.56;4973498;28;45197;-59
2022/03/29 02:10:59;;;;;;;;;12.25;11.00;;;;;20.71;30.68;100696.91;4973540;28;45652;-60
2022/03/29 02:13:25;;;;;;;;;13.00;13.00;;;;;20.70;30.30;100696.03;4975086;28;61383;-59
2022/03/29 02:15:50;;;;;;;;;16.75;12.50;;;;;20.70;30.24;100690.78;4976698;28;45398;-59
2022/03/29 02:18:16;;;;;;;;;16.25;15.25;;;;;20.70;30.18;100690.78;4975078;28;45337;-60
2022/03/29 02:20:41;;;;;;;;;13.50;9.25;;;;;20.70;30.23;100674.97;4976585;28;45547;-60
2022/03/29 02:23:08;;;;;;;;;13.00;13.00;;;;;20.69;30.35;100668.00;4974890;28;46937;-58
2022/03/29 02:25:35;;;;;;;;;13.75;12.75;;;;;20.71;30.38;100670.56;4975192;28;45858;-61
2022/03/29 02:28:01;;;;;;;;;10.00;9.00;;;;;20.70;30.24;100663.59;4976355;28;45232;-60
2022/03/29 02:30:26;;;;;;;;;12.00;11.25;;;;;20.68;30.22;100654.94;4976398;28;45374;-60
2022/03/29 02:32:52;;;;;;;;;13.00;13.00;;;;;20.69;30.34;100654.84;4976372;28;46478;-61
2022/03/29 02:35:17;;;;;;;;;11.00;10.00;;;;;20.69;30.16;100652.19;4976198;28;45350;-58
2022/03/29 02:37:43;;;;;;;;;14.00;11.50;;;;;20.69;30.02;100652.19;4976263;28;45243;-60
2022/03/29 02:40:09;;;;;;;;;13.50;11.00;;;;;20.70;30.56;100647.81;4975128;28;45352;-60
2022/03/29 02:42:48;;;;;;;;;13.50;10.75;;;;;20.68;30.31;100639.97;4976053;28;45943;-60
2022/03/29 02:45:22;;;;;;;;;11.00;10.75;;;;;20.70;30.27;100637.25;4974658;28;46468;-59
2022/03/29 02:47:50;;;;;;;;;11.25;11.25;;;;;20.69;30.60;100631.13;4976039;28;45304;-59
2022/03/29 02:50:17;;;;;;;;;12.25;12.25;;;;;20.69;30.48;100630.31;4976163;28;45485;-60
2022/03/29 02:52:47;;;;;;;;;12.50;12.50;;;;;20.69;30.56;100619.78;4975741;28;45585;-61
2022/03/29 02:55:13;;;;;;;;;10.00;9.25;;;;;20.68;30.15;100623.34;4975652;28;45891;-60
2022/03/29 02:57:39;;;;;;;;;12.75;11.25;;;;;20.68;30.68;100626.81;4975737;28;45367;-59
2022/03/29 03:00:06;;;;;;;;;14.25;11.25;;;;;20.68;30.37;100634.69;4974882;28;45663;-60
2022/03/29 03:02:32;;;;;;;;;11.50;11.00;;;;;20.67;30.69;100627.75;4975620;28;45400;-58
2022/03/29 03:04:59;;;;;;;;;10.75;10.75;;;;;20.68;30.50;100624.16;4975763;28;45392;-58
2022/03/29 03:07:24;;;;;;;;;13.50;9.75;;;;;20.68;30.51;100628.59;4974975;28;45757;-59
2022/03/29 03:09:49;;;;;;;;;13.25;11.50;;;;;20.67;30.45;100622.47;4976075;28;45335;-60
2022/03/29 03:12:15;;;;;;;;;9.25;8.50;;;;;20.68;30.52;100618.91;4975662;28;45390;-60
2022/03/29 03:14:40;;;;;;;;;13.75;10.75;;;;;20.68;30.25;100611.00;4975578;28;45438;-60
2022/03/29 03:17:05;;;;;;;;;13.25;13.00;;;;;20.68;30.12;100610.16;4974335;28;45356;-60
2022/03/29 03:19:31;;;;;;;;;14.00;11.00;;;;;20.67;30.52;100601.41;4974286;28;45414;-58
2022/03/29 03:21:56;;;;;;;;;11.00;11.00;;;;;20.68;30.11;100603.09;4975355;28;59029;-59
2022/03/29 03:24:21;;;;;;;;;11.50;10.75;;;;;20.68;30.31;100602.28;4975452;28;45343;-62
2022/03/29 03:26:47;;;;;;;;;12.00;12.00;;;;;20.68;30.58;100597.00;4974024;28;50261;-60
2022/03/29 03:29:12;;;;;;;;;11.75;10.50;;;;;20.67;30.70;100601.41;4975814;28;45327;-60
2022/03/29 03:31:37;;;;;;;;;11.00;11.00;;;;;20.67;30.48;100597.94;4975363;28;45314;-60
2022/03/29 03:34:03;;;;;;;;;9.50;9.50;;;;;20.68;30.76;100597.00;4975368;28;45430;-64
2022/03/29 03:36:28;;;;;;;;;11.50;10.50;;;;;20.68;30.13;100602.28;4975509;28;45438;-61
2022/03/29 03:38:53;;;;;;;;;11.25;11.25;;;;;20.67;30.34;100601.41;4976043;28;45497;-61
2022/03/29 03:41:19;;;;;;;;;11.50;10.75;;;;;20.67;30.58;100596.13;4975385;28;45422;-59
2022/03/29 03:43:44;;;;;;;;;13.75;11.00;;;;;20.66;30.24;100583.94;4974039;28;45608;-60
2022/03/29 03:46:10;;;;;;;;;16.00;11.25;;;;;20.66;30.22;100583.06;4975369;28;45320;-59
2022/03/29 03:48:35;;;;;;;;;10.75;10.00;;;;;20.67;30.59;100579.50;4975479;28;45304;-60
2022/03/29 03:51:01;;;;;;;;;13.00;12.00;;;;;20.67;30.29;100571.59;4975246;28;45264;-60
2022/03/29 03:53:26;;;;;;;;;15.25;12.00;;;;;20.67;30.24;100576.88;4975484;28;45783;-61
2022/03/29 03:55:52;;;;;;;;;11.75;11.25;;;;;20.67;30.81;100574.25;4974010;28;45426;-61
2022/03/29 03:58:17;;;;;;;;;13.50;9.00;;;;;20.67;30.64;100579.50;4975483;28;45546;-60
2022/03/29 04:00:42;;;;;;;;;9.50;8.75;;;;;20.65;30.40;100571.72;4973832;28;47264;-60
2022/03/29 04:03:09;;;;;;;;;12.50;11.50;;;;;20.67;30.58;100566.34;4975122;28;45236;-61
2022/03/29 04:05:34;;;;;;;;;11.50;11.50;;;;;20.66;30.19;100567.28;4975164;28;45300;-58
2022/03/29 04:08:00;;;;;;;;;10.00;10.00;;;;;20.66;30.75;100560.25;4975189;28;45378;-61
2022/03/29 04:10:26;;;;;;;;;11.50;10.00;;;;;20.65;30.42;100561.19;4975177;28;46315;-60
2022/03/29 04:12:51;;;;;;;;;11.00;11.00;;;;;20.65;30.61;100566.44;4975000;28;45855;-60
2022/03/29 04:15:17;;;;;;;;;12.50;10.25;;;;;20.66;30.23;100551.47;4975037;28;45413;-59
2022/03/29 04:17:42;;;;;;;;;10.25;9.75;;;;;20.65;30.50;100555.91;4975081;28;45552;-60
2022/03/29 04:20:08;;;;;;;;;12.00;11.50;;;;;20.66;30.36;100556.75;4974845;28;45430;-60
2022/03/29 04:22:33;;;;;;;;;16.00;10.00;;;;;20.65;30.20;100555.91;4974937;28;45396;-59
2022/03/29 04:24:59;;;;;;;;;14.00;11.25;;;;;20.66;30.85;100562.00;4975362;28;45407;-60
2022/03/29 04:27:24;;;;;;;;;15.75;11.00;;;;;20.65;30.68;100560.31;4975066;28;45315;-60
2022/03/29 04:29:49;;;;;;;;;12.00;11.50;;;;;20.65;30.52;100561.19;4974656;28;45397;-60
2022/03/29 04:32:15;;;;;;;;;14.75;11.00;;;;;20.65;30.98;100566.44;4973505;28;45498;-60
2022/03/29 04:34:40;;;;;;;;;11.50;10.25;;;;;20.64;30.56;100563.88;4972534;28;45286;-61
2022/03/29 04:37:05;;;;;;;;;14.00;13.25;;;;;20.65;30.27;100555.03;4974881;28;45219;-59
2022/03/29 04:39:31;;;;;;;;;12.50;10.75;;;;;20.65;30.71;100552.41;4974485;28;46164;-59
2022/03/29 04:41:57;;;;;;;;;10.75;10.75;;;;;20.65;30.32;100550.63;4974816;28;45403;-61
2022/03/29 04:44:23;;;;;;;;;12.75;11.00;;;;;20.63;30.75;100547.25;4974683;28;45295;-60
2022/03/29 04:46:48;;;;;;;;;14.00;12.00;;;;;20.66;30.24;100546.22;4973378;28;45476;-61
2022/03/29 04:49:13;;;;;;;;;10.75;10.25;;;;;20.65;30.33;100545.38;4974365;28;46030;-61
2022/03/29 04:51:39;;;;;;;;;13.25;10.75;;;;;20.64;30.58;100541.03;4974384;28;45423;-61
2022/03/29 04:54:04;;;;;;;;;15.00;10.00;;;;;20.65;30.26;100550.63;4974637;28;45687;-61
2022/03/29 04:56:29;;;;;;;;;13.25;9.25;;;;;20.64;30.88;100541.03;4974944;28;45547;-61
2022/03/29 04:58:55;;;;;;;;;11.00;10.75;;;;;20.64;30.95;100538.41;4974371;28;45417;-61
2022/03/29 05:01:21;;;;;;;;;12.75;12.75;;;;;20.64;30.43;100537.53;4974269;28;45397;-61
2022/03/29 05:03:46;;;;;;;;;11.25;9.50;;;;;20.64;30.26;100542.81;4974470;28;45455;-61
2022/03/29 05:06:11;;;;;;;;;14.50;12.75;;;;;20.64;30.43;100548.06;4974552;28;45422;-60
2022/03/29 05:08:37;;;;;;;;;13.25;11.00;;;;;20.63;30.92;100549.88;4974144;28;46172;-59
2022/03/29 05:11:02;;;;;;;;;10.50;10.50;;;;;20.64;30.40;100548.06;4974181;28;45473;-59
2022/03/29 05:13:28;;;;;;;;;9.50;9.50;;;;;20.63;30.85;100549.88;4974704;28;45441;-61
2022/03/29 05:15:54;;;;;;;;;10.00;9.25;;;;;20.64;30.89;100545.44;4973210;28;45343;-61
2022/03/29 05:18:19;;;;;;;;;9.75;8.75;;;;;20.62;30.72;100537.66;4973764;28;45394;-61
2022/03/29 05:20:45;;;;;;;;;11.75;9.00;;;;;20.62;30.50;100550.81;4973998;28;45247;-60
2022/03/29 05:23:10;;;;;;;;;15.00;12.25;;;;;20.62;30.43;100545.56;4973045;28;45594;-60
2022/03/29 05:25:36;;;;;;;;;8.50;8.50;;;;;20.63;30.47;100541.13;4974414;28;45524;-61
2022/03/29 05:28:01;;;;;;;;;10.00;8.75;;;;;20.63;30.80;100539.34;4974102;28;45262;-60
2022/03/29 05:30:27;;;;;;;;;13.00;11.75;;;;;20.63;30.96;100528.81;4989054;28;45372;-61
2022/03/29 05:32:57;;;;;;;;;11.50;9.50;;;;;20.62;30.47;100535.03;4973955;28;45263;-61
2022/03/29 05:35:29;;;;;;;;;11.75;10.00;;;;;20.63;31.00;100547.25;4974162;28;45437;-61
2022/03/29 05:37:57;;;;;;;;;10.50;10.00;;;;;20.62;30.36;100545.56;4973554;28;47169;-61
2022/03/29 05:40:23;;;;;;;;;11.75;9.50;;;;;20.63;30.95;100536.72;4973670;28;45378;-64
2022/03/29 05:42:48;;;;;;;;;12.25;11.00;;;;;20.63;30.54;100527.94;4973834;28;45410;-61
2022/03/29 05:45:14;;;;;;;;;9.25;9.25;;;;;20.62;31.00;100529.75;4974136;28;45521;-61
2022/03/29 05:50:25;;;;;;;;;12.75;12.00;;;;;20.64;30.97;100527.00;4976715;28;45404;-61
2022/03/29 05:52:50;;;;;;;;;19.00;18.75;;;;;20.63;30.67;100536.72;4975625;28;45365;-60
2022/03/29 05:55:16;;;;;;;;;17.75;16.00;;;;;20.62;31.41;100519.22;4976932;28;45205;-59
2022/03/29 05:57:42;;;;;;;;;29.75;24.75;;;;;20.64;31.39;100533.16;4976362;28;46242;-60
2022/03/29 06:00:10;;;;;;;;;30.75;29.25;;;;;20.64;31.52;100530.50;4975377;28;45380;-61
2022/03/29 06:02:36;;;;;;;;;24.00;21.00;;;;;20.64;31.13;100532.28;4976579;28;45343;-61
2022/03/29 06:05:02;;;;;;;;;40.75;33.50;;;;;20.64;31.47;100538.41;4976941;28;45448;-61
2022/03/29 06:07:28;;;;;;;;;35.25;29.00;;;;;20.64;31.06;100525.25;4976203;28;45442;-60
2022/03/29 06:09:53;;;;;;;;;33.75;31.00;;;;;20.63;31.38;100528.81;4976183;28;45458;-60
2022/03/29 06:12:22;;;;;;;;;28.50;27.75;;;;;20.64;31.42;100538.41;4974968;28;45450;-59
2022/03/29 06:14:49;;;;;;;;;28.00;26.50;;;;;20.62;31.24;100542.91;4976408;28;45589;-60
2022/03/29 06:17:14;;;;;;;;;29.00;27.75;;;;;20.64;31.32;100543.69;4975983;28;45395;-61
2022/03/29 06:19:39;;;;;;;;;33.00;24.25;;;;;20.65;31.63;100539.25;4976250;28;45325;-60
2022/03/29 06:22:05;;;;;;;;;21.75;21.75;;;;;20.64;31.59;100543.69;4976630;28;45361;-60
2022/03/29 06:24:31;;;;;;;;;28.25;22.25;;;;;20.64;31.67;100548.06;4976652;28;45387;-59
2022/03/29 06:26:58;;;;;;;;;22.75;20.75;;;;;20.61;31.16;100546.50;4974414;28;48073;-56
2022/03/29 06:29:23;;;;;;;;;23.00;20.25;;;;;20.62;31.03;100540.28;4975985;28;45885;-60
2022/03/29 06:31:48;;;;;;;;;19.25;17.75;;;;;20.64;31.31;100548.06;4975987;28;45273;-60
2022/03/29 06:34:14;;;;;;;;;19.75;18.25;;;;;20.63;30.96;100552.50;4976223;28;45515;-58
2022/03/29 06:36:41;;;;;;;;;22.50;19.25;;;;;20.63;31.50;100560.41;4975648;28;46267;-58
2022/03/29 06:39:08;;;;;;;;;18.75;18.25;;;;;20.62;30.98;100563.97;4975878;28;45758;-58
2022/03/29 06:41:34;;;;;;;;;23.50;20.00;;;;;20.64;30.97;100559.47;4976186;28;45505;-59
2022/03/29 06:43:59;;;;;;;;;20.50;18.50;;;;;20.62;31.32;100556.09;4976044;28;45239;-57
2022/03/29 06:46:25;;;;;;;;;24.25;17.75;;;;;20.62;31.17;100553.44;4975594;28;46078;-61
2022/03/29 06:48:50;;;;;;;;;18.75;15.25;;;;;20.63;31.05;100557.78;4975710;28;45497;-59
2022/03/29 06:51:16;;;;;;;;;19.75;17.25;;;;;20.63;31.50;100549.88;4974616;28;45368;-58
2022/03/29 06:53:42;;;;;;;;;19.25;18.25;;;;;20.63;30.97;100555.16;4958522;28;45591;-60
2022/03/29 06:56:08;;;;;;;;;23.00;19.00;;;;;20.62;31.44;100545.56;4975636;28;45418;-60
2022/03/29 06:58:37;;;;;;;;;19.75;18.75;;;;;20.63;30.86;100541.97;4975269;28;45302;-59
2022/03/29 07:01:03;;;;;;;;;18.75;18.00;;;;;20.63;30.91;100538.47;4976030;28;45285;-59
2022/03/29 07:03:30;;;;;;;;;20.25;19.25;;;;;20.62;31.18;100532.38;4974688;28;45633;-59
2022/03/29 07:05:56;;;;;;;;;18.25;18.00;;;;;20.62;31.13;100542.91;4975653;28;45718;-59
2022/03/29 07:08:22;;;;;;;;;19.00;17.75;;;;;20.63;31.44;100534.09;4990590;28;45991;-60
2022/03/29 07:13:31;;;;;;;;;20.75;18.00;;;;;20.64;31.03;100541.03;4975643;28;45392;-58
2022/03/29 07:15:57;;;;;;;;;19.00;15.75;;;;;20.63;31.08;100539.34;4975336;28;45473;-58
2022/03/29 07:18:22;;;;;;;;;22.25;19.75;;;;;20.62;31.03;100531.53;4973990;28;45453;-59
2022/03/29 07:20:48;;;;;;;;;18.75;15.75;;;;;20.64;30.97;100533.16;4975508;28;45313;-56
2022/03/29 07:23:14;;;;;;;;;19.00;17.50;;;;;20.62;31.30;100524.50;4975697;28;45597;-59
2022/03/29 07:25:39;;;;;;;;;12.50;10.50;;;;;20.63;30.92;100527.94;4975373;28;45570;-57
2022/03/29 07:28:11;;;;;;;;;20.00;17.75;;;;;20.64;30.93;100524.38;4975481;28;45193;-58
2022/03/29 07:30:38;;;;;;;;;18.25;15.75;;;;;20.63;31.16;100528.81;4975744;28;45430;-58
2022/03/29 07:33:04;;;;;;;;;15.50;15.25;;;;;20.64;31.36;100522.63;4975545;28;45621;-57
2022/03/29 07:35:30;;;;;;;;;19.75;19.00;;;;;20.64;31.45;100529.66;4975379;28;46013;-59
2022/03/29 07:37:56;;;;;;;;;19.75;13.00;;;;;20.63;30.98;100520.91;4974972;28;45219;-60
2022/03/29 07:40:24;;;;;;;;;18.75;16.75;;;;;20.63;30.97;100520.06;4975336;28;45302;-60
2022/03/29 07:42:50;;;;;;;;;15.75;15.75;;;;;20.64;30.95;100519.97;4975222;28;45777;-60
2022/03/29 07:45:16;;;;;;;;;14.50;12.75;;;;;20.64;30.82;100516.47;4974982;28;46333;-59
2022/03/29 07:47:42;;;;;;;;;15.75;12.75;;;;;20.65;31.19;100513.78;4974875;28;45381;-60
2022/03/29 07:50:11;;;;;;;;;17.00;14.50;;;;;20.63;31.50;100510.38;4975429;28;45441;-60
2022/03/29 07:52:42;;;;;;;;;17.25;13.75;;;;;20.64;31.17;100512.06;4975493;28;45220;-60
2022/03/29 07:55:09;;;;;;;;;17.50;13.50;;;;;20.64;31.35;100512.06;4975241;28;45509;-58
2022/03/29 07:57:36;;;;;;;;;17.25;15.50;;;;;20.64;30.85;100505.94;4974976;28;45852;-60
2022/03/29 08:00:31;;;;;;;;;13.25;11.75;;;;;20.66;30.90;100509.34;4975128;28;45320;-60
2022/03/29 08:02:49;;;;;;;;;14.25;14.25;;;;;20.65;31.08;100500.59;4975058;28;45460;-60
2022/03/29 08:05:14;;;;;;;;;19.00;15.25;;;;;20.64;31.34;100504.19;4974763;28;46286;-60
2022/03/29 08:07:41;;;;;;;;;15.50;14.25;;;;;20.64;31.61;100496.28;4975061;28;45354;-59
2022/03/29 08:10:07;;;;;;;;;17.50;14.50;;;;;20.66;30.98;100504.94;4974085;28;45476;-58
2022/03/29 08:12:33;;;;;;;;;15.25;13.00;;;;;20.69;31.07;100498.63;4975143;28;45387;-60
2022/03/29 08:14:59;;;;;;;;;15.00;13.00;;;;;20.72;31.78;100494.94;4973386;28;45465;-61
2022/03/29 08:17:24;;;;;;;;;17.75;15.25;;;;;20.73;31.18;100491.38;4974537;28;45323;-56
2022/03/29 08:19:49;;;;;;;;;12.00;12.00;;;;;20.74;31.22;100487.81;4974671;28;45387;-56
2022/03/29 08:22:15;;;;;;;;;16.50;16.25;;;;;20.74;31.37;100482.53;4974853;28;45355;-63
2022/03/29 08:24:40;;;;;;;;;13.75;12.75;;;;;20.77;31.69;100490.28;4974710;28;45446;-61
2022/03/29 08:27:05;;;;;;;;;18.00;14.25;;;;;20.80;31.50;100484.81;4974289;28;49797;-56
2022/03/29 08:29:30;;;;;;;;;18.00;18.00;;;;;20.83;31.51;100484.63;4974704;28;45287;-57
2022/03/29 08:31:56;;;;;;;;;14.25;13.75;;;;;20.84;31.26;100476.63;4973235;28;45650;-59
2022/03/29 08:34:21;;;;;;;;;15.25;13.50;;;;;20.89;31.15;100478.13;4973144;28;48057;-58
2022/03/29 08:36:49;;;;;;;;;17.50;14.75;;;;;20.89;31.53;100470.22;4974439;28;45259;-58
2022/03/29 08:39:15;;;;;;;;;14.50;14.25;;;;;20.89;31.28;100473.69;4973261;28;45253;-59
2022/03/29 08:41:53;;;;;;;;;16.75;15.00;;;;;20.88;31.73;100465.91;4974866;28;45448;-59
2022/03/29 08:44:19;;;;;;;;;17.00;13.25;;;;;20.88;31.68;100460.63;4975540;28;45366;-59
2022/03/29 08:46:46;;;;;;;;;17.00;15.25;;;;;20.88;31.65;100453.59;4989358;28;45898;-59
2022/03/29 08:49:13;;;;;;;;;16.50;13.75;;;;;20.86;31.16;100452.84;4974712;28;45380;-59
2022/03/29 08:51:39;;;;;;;;;15.50;14.50;;;;;20.86;31.50;100447.56;4974884;28;45490;-59
2022/03/29 08:54:06;;;;;;;;;16.75;15.00;;;;;20.87;31.28;100454.53;4974181;28;46386;-60
2022/03/29 08:56:31;;;;;;;;;14.75;12.00;;;;;20.87;31.54;100448.41;4974168;28;45324;-60
2022/03/29 08:58:57;;;;;;;;;16.75;14.00;;;;;20.88;31.68;100450.09;4972970;28;45391;-59
2022/03/29 09:01:23;;;;;;;;;14.25;14.25;;;;;20.87;31.62;100449.25;4974395;28;45362;-59
2022/03/29 09:04:10;;;;;;;;;17.00;14.75;;;;;20.88;31.48;100443.06;4974012;28;46034;-61
2022/03/29 09:06:51;;;;;;;;;14.50;12.25;;;;;20.89;31.58;100438.63;4974015;28;45937;-59
2022/03/29 09:09:23;;;;;;;;;15.00;14.25;;;;;20.88;31.86;100440.44;4974325;28;45355;-60
2022/03/29 09:11:50;;;;;;;;;12.50;12.00;;;;;20.88;31.43;100434.28;4974358;28;45514;-60
2022/03/29 09:14:18;;;;;;;;;13.25;13.25;;;;;20.88;31.25;100434.28;4973850;28;45751;-58
2022/03/29 09:16:43;;;;;;;;;18.50;14.75;;;;;20.88;31.52;100439.56;4975245;28;45972;-59
2022/03/29 09:19:09;;;;;;;;;15.25;12.75;;;;;20.87;31.89;100436.09;4973160;28;45412;-59
2022/03/29 09:21:45;;;;;;;;;17.50;13.25;;;;;20.88;31.53;100429.88;4973705;28;45518;-59
2022/03/29 09:24:17;;;;;;;;;14.25;12.00;;;;;20.88;31.98;100429.88;4974033;28;47273;-59
2022/03/29 09:26:49;;;;;;;;;13.75;12.00;;;;;20.88;31.84;100424.63;4973933;28;45767;-61
2022/03/29 09:29:19;;;;;;;;;19.00;14.50;;;;;20.89;31.63;100426.28;4973866;28;45287;-59
2022/03/29 09:31:50;;;;;;;;;17.75;13.75;;;;;20.89;31.87;100420.19;4974113;28;45470;-57
2022/03/29 09:34:20;;;;;;;;;17.75;16.00;;;;;20.88;31.66;100429.88;4973544;28;46363;-59
2022/03/29 09:36:48;;;;;;;;;17.75;14.25;;;;;20.90;31.79;100433.25;4973672;28;45220;-57
2022/03/29 09:39:35;;;;;;;;;19.25;16.75;;;;;20.91;31.75;100434.09;4973936;28;45405;-59
2022/03/29 09:42:04;;;;;;;;;18.75;14.75;;;;;20.89;31.80;100430.72;4974270;28;45274;-62
2022/03/29 09:44:40;;;;;;;;;14.50;13.00;;;;;20.89;32.06;100423.66;4972312;28;45964;-57
2022/03/29 09:47:07;;;;;;;;;12.75;12.75;;;;;20.89;32.04;100414.91;4973489;28;45770;-59
2022/03/29 09:49:56;;;;;;;;;15.75;14.75;;;;;20.91;31.61;100410.41;4973572;28;45378;-57
2022/03/29 09:52:26;;;;;;;;;17.75;15.00;;;;;20.92;31.89;100410.28;4973564;28;45439;-58
2022/03/29 09:55:21;;;;;;;;;14.75;12.25;;;;;20.94;31.88;100412.84;4973133;28;45327;-58
2022/03/29 09:57:49;;;;;;;;;16.25;12.50;;;;;20.95;31.64;100410.09;4973368;28;45328;-58
2022/03/29 10:00:19;;;;;;;;;17.25;14.25;;;;;20.97;31.74;100402.94;4973938;28;45343;-57
2022/03/29 10:02:45;;;;;;;;;18.25;16.25;;;;;20.99;32.02;100408.13;4973971;28;45458;-60
2022/03/29 10:05:11;;;;;;;;;16.25;15.50;;;;;21.00;32.00;100399.28;4973340;28;45339;-58
2022/03/29 10:10:46;;;;;;;;;14.25;13.00;;;;;21.05;32.20;100393.69;4973577;28;45332;-59
2022/03/29 10:13:13;;;;;;;;;18.50;15.00;;;;;21.04;32.12;100386.75;4972639;28;45490;-59
2022/03/29 10:15:41;;;;;;;;;17.75;16.50;;;;;21.06;32.18;100384.84;4973153;28;45395;-58
2022/03/29 10:18:07;;;;;;;;;13.00;13.00;;;;;21.05;31.93;100378.75;4972920;28;45207;-56
2022/03/29 10:20:33;;;;;;;;;14.75;12.50;;;;;21.07;31.97;100376.00;4973178;28;45454;-57
2022/03/29 10:22:59;;;;;;;;;16.25;13.50;;;;;21.06;32.23;100376.94;4973253;28;45220;-59
2022/03/29 10:25:26;;;;;;;;;14.75;13.25;;;;;21.06;31.78;100374.31;4971830;28;46453;-57
2022/03/29 10:27:54;;;;;;;;;14.75;13.00;;;;;21.05;31.67;100373.47;4971534;28;45348;-57
2022/03/29 10:30:40;;;;;;;;;16.00;15.50;;;;;21.05;32.04;100373.47;4973039;28;45441;-57
2022/03/29 10:33:27;;;;;;;;;13.75;12.25;;;;;21.05;31.49;100368.22;4973920;28;45245;-58
2022/03/29 10:36:11;;;;;;;;;15.50;13.75;;;;;21.04;31.68;100368.28;4976138;28;46091;-58
2022/03/29 10:38:45;;;;;;;;;16.50;15.00;;;;;21.04;31.56;100369.16;4976190;28;45839;-58
2022/03/29 10:41:26;;;;;;;;;15.75;14.75;;;;;21.04;31.68;100360.38;4976004;28;45246;-59
2022/03/29 10:43:55;;;;;;;;;11.00;11.00;;;;;21.03;31.67;100359.56;4976205;28;45627;-58
2022/03/29 10:46:37;;;;;;;;;14.50;11.75;;;;;21.03;31.73;100358.69;4975719;28;46884;-58
2022/03/29 10:49:28;;;;;;;;;13.25;13.25;;;;;21.03;31.68;100356.94;4975972;28;45481;-59
2022/03/29 10:52:20;;;;;;;;;17.75;14.25;;;;;21.02;31.86;100352.59;4974614;28;45895;-56
2022/03/29 10:54:46;;;;;;;;;14.25;13.25;;;;;21.03;31.76;100342.88;4975264;28;45318;-58
2022/03/29 10:57:25;;;;;;;;;10.00;9.00;;;;;21.03;31.76;100340.25;4975664;28;46134;-58
2022/03/29 10:59:58;;;;;;;;;12.75;12.75;;;;;21.03;31.89;100337.63;4975827;28;45387;-58
2022/03/29 11:02:25;;;;;;;;;15.25;15.25;;;;;21.02;31.49;100336.78;4974435;28;45348;-57
2022/03/29 11:05:08;;;;;;;;;15.25;12.00;;;;;21.02;31.34;100339.41;4976232;28;45556;-58
2022/03/29 11:07:36;;;;;;;;;13.50;12.00;;;;;21.01;31.10;100335.94;4975654;28;46554;-59
2022/03/29 11:10:16;;;;;;;;;16.00;13.25;;;;;21.03;31.35;100338.47;4975649;28;45456;-56
2022/03/29 11:12:54;;;;;;;;;11.75;9.00;;;;;21.02;31.62;100326.25;4975800;28;45409;-57
2022/03/29 11:15:25;;;;;;;;;13.50;11.75;;;;;21.01;31.73;100330.66;4976427;28;45814;-58
2022/03/29 11:17:57;;;;;;;;;12.25;11.75;;;;;21.01;31.83;100335.94;4975348;28;46304;-58
2022/03/29 11:20:42;;;;;;;;;11.25;11.25;;;;;21.00;31.51;100331.59;4975443;28;45407;-58
2022/03/29 11:23:09;;;;;;;;;15.50;14.00;;;;;20.99;31.21;100329.06;4974275;28;45455;-56